createdAt,value
2022-11-12T00:01:45.037Z,102188.88
2022-11-12T00:04:30.353Z,102184.75
2022-11-12T00:07:16.097Z,102188.50
2022-11-12T00:10:01.752Z,102183.09
2022-11-12T00:12:49.321Z,102194.72
2022-11-12T00:15:34.997Z,102188.09
2022-11-12T00:18:20.390Z,102193.66
2022-11-12T00:21:05.857Z,102192.41
2022-11-12T00:23:51.267Z,102192.47
2022-11-12T00:26:36.283Z,102194.16
2022-11-12T00:29:21.340Z,102195.53
2022-11-12T00:32:08.228Z,102187.94
2022-11-12T00:34:53.867Z,102191.84
2022-11-12T00:37:39.143Z,102194.91
2022-11-12T00:40:25.307Z,102191.84
2022-11-12T00:43:10.435Z,102191.47
2022-11-12T00:45:55.801Z,102189.34
2022-11-12T00:48:41.357Z,102184.72
2022-11-12T00:51:27.539Z,102196.19
2022-11-12T00:54:12.636Z,102197.63
2022-11-12T00:56:57.826Z,102197.66
2022-11-12T00:59:43.258Z,102193.78
2022-11-12T01:02:30.525Z,102196.53
2022-11-12T01:05:16.089Z,102192.00
2022-11-12T01:08:01.492Z,102186.72
2022-11-12T01:10:46.527Z,102192.91
2022-11-12T01:13:32.821Z,102193.38
2022-11-12T01:16:20.596Z,102191.91
2022-11-12T01:19:09.570Z,102197.19
2022-11-12T01:21:55.396Z,102203.47
2022-11-12T01:24:40.486Z,102194.44
2022-11-12T01:27:25.886Z,102204.44
2022-11-12T01:30:11.510Z,102204.06
2022-11-12T01:32:56.997Z,102203.03
2022-11-12T01:35:42.316Z,102192.13
2022-11-12T01:38:28.183Z,102184.53
2022-11-12T01:41:17.691Z,102188.06
2022-11-12T01:44:17.966Z,102181.22
2022-11-12T01:47:13.916Z,102177.19
2022-11-12T01:50:14.008Z,102175.63
2022-11-12T01:53:07.653Z,102179.88
2022-11-12T01:55:53.705Z,102178.41
2022-11-12T01:58:41.499Z,102177.78
2022-11-12T02:01:27.795Z,102182.78
2022-11-12T02:04:13.158Z,102186.72
2022-11-12T02:06:58.929Z,102188.31
2022-11-12T02:09:44.652Z,102187.41
2022-11-12T02:12:49.443Z,102188.69
2022-11-12T02:15:34.822Z,102183.13
2022-11-12T02:18:20.081Z,102183.88
2022-11-12T02:21:08.858Z,102176.31
2022-11-12T02:23:58.787Z,102178.13
2022-11-12T02:26:47.461Z,102169.09
2022-11-12T02:29:33.149Z,102174.16
2022-11-12T02:32:18.392Z,102166.91
2022-11-12T02:35:04.115Z,102158.13
2022-11-12T02:37:49.472Z,102163.47
2022-11-12T02:40:35.229Z,102157.59
2022-11-12T02:43:21.015Z,102160.22
2022-11-12T02:46:06.520Z,102155.22
2022-11-12T02:48:51.795Z,102156.06
2022-11-12T02:51:36.826Z,102152.66
2022-11-12T02:54:21.925Z,102155.34
2022-11-12T02:57:07.167Z,102154.59
2022-11-12T02:59:52.480Z,102153.59
2022-11-12T03:02:59.056Z,102146.06
2022-11-12T03:05:45.452Z,102144.50
2022-11-12T03:08:30.857Z,102155.91
2022-11-12T03:11:17.603Z,102159.50
2022-11-12T03:14:03.405Z,102146.56
2022-11-12T03:16:49.015Z,102154.97
2022-11-12T03:19:34.150Z,102149.88
2022-11-12T03:22:19.238Z,102157.56
2022-11-12T03:25:06.317Z,102157.59
2022-11-12T03:28:02.840Z,102164.50
2022-11-12T03:30:48.130Z,102154.09
2022-11-12T03:33:33.515Z,102154.72
2022-11-12T03:36:18.889Z,102159.78
2022-11-12T03:39:04.409Z,102153.78
2022-11-12T03:41:49.753Z,102160.72
2022-11-12T03:44:35.068Z,102152.94
2022-11-12T03:47:20.099Z,102152.69
2022-11-12T03:50:06.620Z,102143.06
2022-11-12T03:52:54.191Z,102154.72
2022-11-12T03:55:39.532Z,102149.16
2022-11-12T03:58:25.300Z,102146.56
2022-11-12T04:01:10.443Z,102147.50
2022-11-12T04:03:55.817Z,102145.22
2022-11-12T04:06:59.673Z,102138.53
2022-11-12T04:09:46.425Z,102136.13
2022-11-12T04:12:50.021Z,102139.72
2022-11-12T04:15:35.249Z,102135.13
2022-11-12T04:18:38.835Z,102134.94
2022-11-12T04:21:47.202Z,102128.56
2022-11-12T04:24:53.197Z,102135.78
2022-11-12T04:27:39.229Z,102139.72
2022-11-12T04:30:24.651Z,102134.84
2022-11-12T04:33:09.629Z,102128.38
2022-11-12T04:35:55.200Z,102138.63
2022-11-12T04:38:40.333Z,102130.41
2022-11-12T04:41:44.053Z,102140.75
2022-11-12T04:44:48.056Z,102136.69
2022-11-12T04:47:37.300Z,102142.53
2022-11-12T04:50:22.742Z,102146.50
2022-11-12T04:53:08.034Z,102139.28
2022-11-12T04:55:56.631Z,102143.44
2022-11-12T04:58:42.505Z,102148.97
2022-11-12T05:01:27.988Z,102144.53
2022-11-12T05:04:13.334Z,102150.06
2022-11-12T05:06:59.582Z,102142.69
2022-11-12T05:09:45.014Z,102146.19
2022-11-12T05:12:30.909Z,102161.94
2022-11-12T05:15:16.207Z,102150.53
2022-11-12T05:18:01.654Z,102156.28
2022-11-12T05:20:46.690Z,102146.69
2022-11-12T05:23:31.983Z,102155.16
2022-11-12T05:26:17.137Z,102161.00
2022-11-12T05:29:06.276Z,102150.19
2022-11-12T05:31:53.645Z,102162.63
2022-11-12T05:34:38.679Z,102164.91
2022-11-12T05:37:24.484Z,102167.44
2022-11-12T05:40:10.280Z,102168.13
2022-11-12T05:42:55.814Z,102162.56
2022-11-12T05:45:44.226Z,102162.63
2022-11-12T05:48:30.229Z,102171.56
2022-11-12T05:51:15.592Z,102177.69
2022-11-12T05:54:01.724Z,102177.25
2022-11-12T05:56:47.131Z,102171.25
2022-11-12T05:59:32.261Z,102168.19
2022-11-12T06:02:17.666Z,102176.94
2022-11-12T06:05:03.291Z,102177.00
2022-11-12T06:07:48.396Z,102183.22
2022-11-12T06:10:33.839Z,102182.59
2022-11-12T06:13:20.356Z,102181.00
2022-11-12T06:16:05.972Z,102172.34
2022-11-12T06:18:50.873Z,102180.94
2022-11-12T06:21:36.015Z,102176.03
2022-11-12T06:24:21.308Z,102184.84
2022-11-12T06:27:07.054Z,102181.50
2022-11-12T06:29:52.635Z,102180.69
2022-11-12T06:32:38.279Z,102192.94
2022-11-12T06:35:23.650Z,102186.38
2022-11-12T06:38:10.913Z,102184.38
2022-11-12T06:40:56.341Z,102184.66
2022-11-12T06:43:42.345Z,102192.31
2022-11-12T06:46:27.794Z,102192.31
2022-11-12T06:49:12.941Z,102193.75
2022-11-12T06:51:58.210Z,102190.09
2022-11-12T06:54:43.499Z,102192.38
2022-11-12T06:57:31.423Z,102187.94
2022-11-12T07:00:17.369Z,102192.00
2022-11-12T07:03:12.455Z,102193.50
2022-11-12T07:05:57.837Z,102186.75
2022-11-12T07:08:43.156Z,102191.75
2022-11-12T07:11:28.211Z,102184.75
2022-11-12T07:14:13.521Z,102189.31
2022-11-12T07:16:58.443Z,102185.91
2022-11-12T07:19:43.693Z,102189.59
2022-11-12T07:22:30.580Z,102188.97
2022-11-12T07:25:16.172Z,102187.94
2022-11-12T07:28:01.387Z,102185.44
2022-11-12T07:30:46.659Z,102180.97
2022-11-12T07:33:32.950Z,102183.41
2022-11-12T07:36:20.312Z,102174.59
2022-11-12T07:39:05.631Z,102183.31
2022-11-12T07:41:51.545Z,102175.09
2022-11-12T07:44:37.247Z,102170.22
2022-11-12T07:47:22.233Z,102169.50
2022-11-12T07:50:07.956Z,102183.13
2022-11-12T07:52:53.208Z,102181.94
2022-11-12T07:55:38.723Z,102175.53
2022-11-12T07:58:25.168Z,102173.94
2022-11-12T08:01:20.689Z,102170.41
2022-11-12T08:04:09.380Z,102174.28
2022-11-12T08:06:54.836Z,102175.25
2022-11-12T08:09:39.880Z,102174.84
2022-11-12T08:12:24.900Z,102186.09
2022-11-12T08:15:10.988Z,102184.84
2022-11-12T08:17:56.216Z,102189.88
2022-11-12T08:20:41.856Z,102196.31
2022-11-12T08:23:27.580Z,102192.50
2022-11-12T08:26:15.062Z,102193.25
2022-11-12T08:29:03.943Z,102190.47
2022-11-12T08:31:52.849Z,102183.59
2022-11-12T08:34:41.215Z,102189.19
2022-11-12T08:37:26.567Z,102193.63
2022-11-12T08:40:12.500Z,102190.38
2022-11-12T08:43:08.821Z,102198.09
2022-11-12T08:45:54.323Z,102187.69
2022-11-12T08:48:40.381Z,102201.00
2022-11-12T08:51:25.444Z,102200.13
2022-11-12T08:54:10.768Z,102208.31
2022-11-12T08:56:55.919Z,102212.69
2022-11-12T08:59:41.416Z,102220.28
2022-11-12T09:02:26.584Z,102210.66
2022-11-12T09:05:12.344Z,102204.66
2022-11-12T09:08:07.071Z,102203.03
2022-11-12T09:10:52.884Z,102205.38
2022-11-12T09:13:38.091Z,102194.78
2022-11-12T09:16:24.500Z,102188.53
2022-11-12T09:19:09.796Z,102195.34
2022-11-12T09:21:55.053Z,102196.16
2022-11-12T09:24:40.604Z,102198.66
2022-11-12T09:27:29.110Z,102210.91
2022-11-12T09:30:15.879Z,102210.19
2022-11-12T09:33:03.653Z,102196.06
2022-11-12T09:35:49.642Z,102199.56
2022-11-12T09:38:35.058Z,102199.56
2022-11-12T09:41:46.517Z,102199.44
2022-11-12T09:44:36.641Z,102200.59
2022-11-12T09:47:43.073Z,102194.22
2022-11-12T09:50:36.891Z,102204.94
2022-11-12T09:53:43.012Z,102199.69
2022-11-12T09:56:30.143Z,102200.44
2022-11-12T09:59:17.324Z,102197.81
2022-11-12T10:02:27.427Z,102195.25
2022-11-12T10:05:28.815Z,102182.59
2022-11-12T10:08:27.551Z,102180.69
2022-11-12T10:12:02.849Z,102186.69
2022-11-12T10:15:30.766Z,102176.06
2022-11-12T10:18:29.226Z,102179.47
2022-11-12T10:21:20.514Z,102174.56
2022-11-12T10:24:10.362Z,102171.06
2022-11-12T10:26:57.889Z,102162.81
2022-11-12T10:29:58.726Z,102165.44
2022-11-12T10:32:46.501Z,102166.72
2022-11-12T10:35:31.666Z,102179.03
2022-11-12T10:38:23.527Z,102177.41
2022-11-12T10:41:24.223Z,102176.50
2022-11-12T10:44:15.075Z,102168.09
2022-11-12T10:47:22.374Z,102169.84
2022-11-12T10:50:34.609Z,102168.63
2022-11-12T10:53:35.732Z,102166.97
2022-11-12T10:56:30.974Z,102170.41
2022-11-12T10:59:22.307Z,102168.88
2022-11-12T11:02:18.101Z,102162.41
2022-11-12T11:05:28.150Z,102170.88
2022-11-12T11:08:13.633Z,102163.09
2022-11-12T11:11:18.185Z,102167.00
2022-11-12T11:14:21.754Z,102164.22
2022-11-12T11:17:16.768Z,102163.94
2022-11-12T11:20:04.226Z,102145.38
2022-11-12T11:23:19.333Z,102153.88
2022-11-12T11:26:19.960Z,102149.06
2022-11-12T11:29:33.042Z,102147.78
2022-11-12T11:32:37.403Z,102153.59
2022-11-12T11:35:44.464Z,102151.28
2022-11-12T11:38:39.032Z,102153.59
2022-11-12T11:41:43.010Z,102150.09
2022-11-12T11:44:51.385Z,102157.28
2022-11-12T11:48:01.359Z,102147.69
2022-11-12T11:51:07.969Z,102152.38
2022-11-12T11:54:13.180Z,102147.59
2022-11-12T11:57:03.977Z,102136.97
2022-11-12T12:00:04.543Z,102140.00
2022-11-12T12:03:10.027Z,102143.44
2022-11-12T12:06:20.884Z,102127.19
2022-11-12T12:09:25.049Z,102129.97
2022-11-12T12:12:23.797Z,102128.25
2022-11-12T12:15:36.873Z,102114.78
2022-11-12T12:18:46.854Z,102111.41
2022-11-12T12:21:36.355Z,102115.88
2022-11-12T12:24:29.989Z,102108.97
2022-11-12T12:27:20.985Z,102108.81
2022-11-12T12:30:27.905Z,102098.66
2022-11-12T12:33:27.931Z,102105.44
2022-11-12T12:36:20.036Z,102101.72
2022-11-12T12:39:14.789Z,102094.53
2022-11-12T12:42:27.873Z,102097.56
2022-11-12T12:45:46.397Z,102087.75
2022-11-12T12:48:44.329Z,102085.09
2022-11-12T12:51:33.025Z,102089.81
2022-11-12T12:54:37.227Z,102077.81
2022-11-12T12:57:37.987Z,102076.78
2022-11-12T13:00:39.276Z,102080.50
2022-11-12T13:03:46.004Z,102074.25
2022-11-12T13:06:35.187Z,102072.13
2022-11-12T13:09:25.645Z,102064.91
2022-11-12T13:12:17.197Z,102067.13
2022-11-12T13:15:16.065Z,102057.34
2022-11-12T13:18:01.610Z,102056.69
2022-11-12T13:21:18.697Z,102062.22
2022-11-12T13:24:13.072Z,102060.47
2022-11-12T13:27:00.801Z,102060.50
2022-11-12T13:29:47.627Z,102053.94
2022-11-12T13:32:38.644Z,102060.78
2022-11-12T13:35:34.995Z,102061.34
2022-11-12T13:38:20.693Z,102053.09
2022-11-12T13:41:19.568Z,102044.97
2022-11-12T13:44:09.167Z,102053.06
2022-11-12T13:46:56.287Z,102052.41
2022-11-12T13:49:47.767Z,102045.25
2022-11-12T13:52:34.364Z,102044.63
2022-11-12T13:55:22.189Z,102039.41
2022-11-12T13:58:19.157Z,102038.91
2022-11-12T14:01:06.915Z,102033.25
2022-11-12T14:03:52.996Z,102042.38
2022-11-12T14:06:43.238Z,102034.78
2022-11-12T14:09:35.751Z,102029.97
2022-11-12T14:12:24.562Z,102024.88
2022-11-12T14:15:33.646Z,102023.22
2022-11-12T14:18:40.069Z,102024.38
2022-11-12T14:21:26.199Z,102034.34
2022-11-12T14:24:13.443Z,102021.06
2022-11-12T14:26:58.558Z,102030.00
2022-11-12T14:29:44.557Z,102019.53
2022-11-12T14:32:36.860Z,102026.25
2022-11-12T14:35:27.824Z,102024.19
2022-11-12T14:38:13.580Z,102021.41
2022-11-12T14:41:07.925Z,102006.16
2022-11-12T14:44:11.634Z,102008.25
2022-11-12T14:46:58.913Z,101999.88
2022-11-12T14:49:47.993Z,102004.31
2022-11-12T14:52:43.967Z,102000.13
2022-11-12T14:55:34.305Z,101998.06
2022-11-12T14:58:24.594Z,101995.44
2022-11-12T15:04:41.243Z,101990.28
2022-11-12T15:07:29.082Z,101991.16
2022-11-12T15:10:34.113Z,101987.25
2022-11-12T15:13:24.130Z,101995.59
2022-11-12T15:16:11.771Z,101993.59
2022-11-12T15:19:06.881Z,102000.19
2022-11-12T15:21:55.218Z,101999.69
2022-11-12T15:24:43.781Z,101995.72
2022-11-12T15:27:34.001Z,101998.50
2022-11-12T15:30:28.151Z,101994.41
2022-11-12T15:33:13.813Z,101992.16
2022-11-12T15:36:01.552Z,101993.38
2022-11-12T15:38:49.434Z,101992.63
2022-11-12T15:41:34.608Z,101976.19
2022-11-12T15:44:20.090Z,101979.94
2022-11-12T15:47:05.533Z,101975.56
2022-11-12T15:49:52.951Z,101977.47
2022-11-12T15:52:38.778Z,101980.91
2022-11-12T15:55:24.134Z,101962.78
2022-11-12T15:58:20.655Z,101969.03
2022-11-12T16:01:06.516Z,101968.41
2022-11-12T16:03:51.508Z,101967.00
2022-11-12T16:06:36.879Z,101959.09
2022-11-12T16:09:22.379Z,101951.53
2022-11-12T16:12:14.576Z,101952.13
2022-11-12T16:15:02.228Z,101957.84
2022-11-12T16:17:48.658Z,101954.72
2022-11-12T16:20:35.666Z,101949.66
2022-11-12T16:23:21.091Z,101953.19
2022-11-12T16:26:09.046Z,101946.38
2022-11-12T16:28:54.721Z,101945.09
2022-11-12T16:31:46.246Z,101934.31
2022-11-12T16:34:31.567Z,101933.91
2022-11-12T16:37:16.979Z,101931.84
2022-11-12T16:40:02.462Z,101931.38
2022-11-12T16:42:49.290Z,101926.50
2022-11-12T16:45:42.760Z,101931.19
2022-11-12T16:48:28.317Z,101935.06
2022-11-12T16:51:19.960Z,101930.25
2022-11-12T16:54:05.715Z,101933.88
2022-11-12T16:56:51.033Z,101920.59
2022-11-12T16:59:37.550Z,101927.53
2022-11-12T17:02:23.253Z,101927.63
2022-11-12T17:05:21.099Z,101936.53
2022-11-12T17:08:06.962Z,101926.50
2022-11-12T17:10:52.317Z,101922.91
2022-11-12T17:13:38.802Z,101926.69
2022-11-12T17:16:24.233Z,101923.34
2022-11-12T17:19:13.223Z,101921.78
2022-11-12T17:21:59.206Z,101915.50
2022-11-12T17:24:44.850Z,101922.56
2022-11-12T17:27:30.183Z,101913.47
2022-11-12T17:30:15.551Z,101906.53
2022-11-12T17:33:01.769Z,101904.59
2022-11-12T17:35:47.454Z,101902.13
2022-11-12T17:38:32.627Z,101910.50
2022-11-12T17:41:17.748Z,101902.66
2022-11-12T17:44:04.211Z,101906.31
2022-11-12T17:46:50.397Z,101904.41
2022-11-12T17:49:35.895Z,101891.31
2022-11-12T17:52:21.252Z,101899.06
2022-11-12T17:55:07.681Z,101888.97
2022-11-12T17:57:53.098Z,101895.25
2022-11-12T18:00:39.065Z,101882.44
2022-11-12T18:03:27.177Z,101892.25
2022-11-12T18:06:15.404Z,101890.25
2022-11-12T18:09:05.667Z,101893.41
2022-11-12T18:11:56.554Z,101895.53
2022-11-12T18:14:44.455Z,101892.38
2022-11-12T18:17:33.450Z,101888.03
2022-11-12T18:20:19.753Z,101893.34
2022-11-12T18:23:05.435Z,101900.41
2022-11-12T18:25:50.919Z,101891.75
2022-11-12T18:28:36.626Z,101898.50
2022-11-12T18:31:23.281Z,101896.66
2022-11-12T18:34:15.039Z,101890.22
2022-11-12T18:37:00.447Z,101887.34
2022-11-12T18:39:45.621Z,101884.66
2022-11-12T18:42:31.110Z,101885.16
2022-11-12T18:45:16.690Z,101887.56
2022-11-12T18:48:04.013Z,101887.81
2022-11-12T18:50:49.459Z,101884.06
2022-11-12T18:53:35.769Z,101880.34
2022-11-12T18:56:22.693Z,101893.53
2022-11-12T18:59:11.645Z,101889.25
2022-11-12T19:02:00.002Z,101883.84
2022-11-12T19:04:45.739Z,101883.53
2022-11-12T19:07:32.949Z,101880.59
2022-11-12T19:10:19.629Z,101870.66
2022-11-12T19:13:06.620Z,101871.19
2022-11-12T19:15:52.065Z,101866.44
2022-11-12T19:18:39.539Z,101870.13
2022-11-12T19:21:26.865Z,101877.16
2022-11-12T19:24:12.349Z,101865.59
2022-11-12T19:26:57.821Z,101872.56
2022-11-12T19:29:43.260Z,101862.09
2022-11-12T19:32:31.615Z,101860.44
2022-11-12T19:35:17.212Z,101845.34
2022-11-12T19:38:02.757Z,101856.59
2022-11-12T19:40:48.127Z,101853.69
2022-11-12T19:43:34.012Z,101855.53
2022-11-12T19:46:20.776Z,101850.00
2022-11-12T19:49:06.294Z,101840.53
2022-11-12T19:51:51.589Z,101845.50
2022-11-12T19:54:36.620Z,101835.06
2022-11-12T19:57:23.121Z,101835.81
2022-11-12T20:00:08.923Z,101835.50
2022-11-12T20:02:54.345Z,101834.25
2022-11-12T20:05:40.574Z,101837.22
2022-11-12T20:08:25.839Z,101841.69
2022-11-12T20:11:12.334Z,101843.47
2022-11-12T20:13:58.776Z,101839.19
2022-11-12T20:16:44.152Z,101837.22
2022-11-12T20:19:29.593Z,101831.88
2022-11-12T20:22:14.572Z,101818.34
2022-11-12T20:25:00.191Z,101822.88
2022-11-12T20:27:45.460Z,101824.59
2022-11-12T20:30:31.277Z,101820.13
2022-11-12T20:33:16.508Z,101823.91
2022-11-12T20:36:07.320Z,101823.16
2022-11-12T20:38:53.551Z,101818.16
2022-11-12T20:41:38.980Z,101819.81
2022-11-12T20:44:24.658Z,101808.09
2022-11-12T20:47:10.976Z,101816.78
2022-11-12T20:49:56.185Z,101821.69
2022-11-12T20:52:41.507Z,101815.78
2022-11-12T20:55:26.871Z,101809.34
2022-11-12T20:58:12.152Z,101809.34
2022-11-12T21:00:57.396Z,101808.16
2022-11-12T21:03:45.129Z,101807.69
2022-11-12T21:06:30.512Z,101801.91
2022-11-12T21:09:18.354Z,101803.25
2022-11-12T21:12:04.303Z,101802.13
2022-11-12T21:14:50.699Z,101798.59
2022-11-12T21:17:36.084Z,101796.41
2022-11-12T21:20:23.504Z,101794.81
2022-11-12T21:23:11.529Z,101798.31
2022-11-12T21:26:02.446Z,101796.16
2022-11-12T21:28:53.971Z,101786.97
2022-11-12T21:31:39.805Z,101788.00
2022-11-12T21:34:24.962Z,101789.22
2022-11-12T21:37:10.122Z,101789.22
2022-11-12T21:39:55.450Z,101784.69
2022-11-12T21:42:46.838Z,101789.53
2022-11-12T21:45:32.200Z,101791.19
2022-11-12T21:48:18.597Z,101785.44
2022-11-12T21:51:08.928Z,101774.91
2022-11-12T21:53:58.898Z,101779.31
2022-11-12T21:56:45.137Z,101774.28
2022-11-12T21:59:30.468Z,101783.63
2022-11-12T22:02:15.841Z,101776.66
2022-11-12T22:05:01.141Z,101773.72
2022-11-12T22:07:46.464Z,101781.53
2022-11-12T22:10:33.252Z,101771.53
2022-11-12T22:13:26.721Z,101765.53
2022-11-12T22:16:13.872Z,101761.91
2022-11-12T22:19:00.192Z,101765.03
2022-11-12T22:21:46.582Z,101759.59
2022-11-12T22:24:31.959Z,101755.84
2022-11-12T22:27:17.031Z,101761.03
2022-11-12T22:30:02.672Z,101753.28
2022-11-12T22:32:48.010Z,101753.34
2022-11-12T22:35:33.551Z,101748.34
2022-11-12T22:38:21.139Z,101738.25
2022-11-12T22:41:09.127Z,101737.16
2022-11-12T22:43:56.780Z,101736.19
2022-11-12T22:46:42.038Z,101735.19
2022-11-12T22:49:27.513Z,101733.78
2022-11-12T22:52:12.669Z,101733.03
2022-11-12T22:54:57.754Z,101726.91
2022-11-12T22:57:42.958Z,101714.19
2022-11-12T23:00:31.194Z,101711.38
2022-11-12T23:03:16.271Z,101706.75
2022-11-12T23:06:04.395Z,101703.44
2022-11-12T23:08:50.104Z,101697.47
2022-11-12T23:11:37.554Z,101695.28
2022-11-12T23:14:22.829Z,101690.31
2022-11-12T23:17:08.242Z,101682.41
2022-11-12T23:19:53.343Z,101690.25
2022-11-12T23:22:42.844Z,101684.34
2022-11-12T23:25:29.564Z,101680.56
2022-11-12T23:28:14.654Z,101686.53
2022-11-12T23:31:00.187Z,101678.66
2022-11-12T23:33:49.306Z,101674.97
2022-11-12T23:36:34.571Z,101684.81
2022-11-12T23:39:19.497Z,101682.41
2022-11-12T23:42:04.586Z,101661.28
2022-11-12T23:44:49.912Z,101657.81
2022-11-12T23:47:35.223Z,101663.44
2022-11-12T23:50:20.574Z,101660.75
2022-11-12T23:53:05.705Z,101654.97
2022-11-12T23:55:50.677Z,101648.69
2022-11-12T23:58:37.417Z,101653.72
